Latest Weather Observations for Richmond

IDN60901

Issued at 9:51 pm EST Monday 25 May 2015 (issued every 10 minutes, with the page automatically refreshed every 10 minutes)

About weather observations | Map of Sydney area stations | Latest observations for Sydney area | Other Formats
Station Details ID: 067105 Name: RICHMOND RAAF Lat: -33.60 Lon: 150.78 Height: 19.0 m
Data from the previous 72 hours. | See also: Recent months at Richmond
Date/Time
EST
Tmp

°C
App
Tmp
°C
Dew
Point
°C
Rel
Hum
%
Delta-T

°C
Wind Press
QNH
hPa
Press
MSL
hPa
Rain
since
9 am
mm
Dir
 
Spd
km/h
Gust
km/h
Spd
kts
Gust
kts
25/09:43pm 9.3 9.1 9.0 98 0.1 CALM 0 0 0 0 1029.8 1029.8 0.2
25/09:30pm 9.0 8.7 8.7 98 0.1 CALM 0 0 0 0 1029.8 1029.8 0.2
25/09:23pm 8.9 8.6 8.6 98 0.1 CALM 0 0 0 0 1029.7 1029.7 0.2
25/09:02pm 9.6 8.1 9.3 98 0.1 SSE 7 9 4 5 1029.7 1029.7 0.2
25/09:00pm 9.7 8.5 9.4 98 0.1 SSE 6 9 3 5 1029.7 1029.7 0.2
25/08:41pm 10.4 10.5 10.1 98 0.2 CALM 0 0 0 0 1029.9 1029.9 0.2
25/08:30pm 9.8 9.7 9.5 98 0.1 CALM 0 0 0 0 1029.8 1029.8 0.2
25/08:14pm 10.2 10.2 9.9 98 0.2 CALM 0 0 0 0 1029.7 1029.7 0.2
25/08:09pm 10.2 10.2 9.9 98 0.2 CALM 0 0 0 0 1029.7 1029.7 0.2
25/08:00pm 10.2 10.2 9.9 98 0.1 CALM 0 0 0 0 1029.5 1029.5 0.2
25/07:30pm 10.2 10.2 9.9 98 0.2 CALM 0 0 0 0 1029.5 1029.5 0.2
25/07:16pm 10.9 11.0 10.1 95 0.4 CALM 0 0 0 0 1029.3 1029.3 0.2
25/07:00pm 11.1 11.1 9.9 92 0.6 CALM 0 0 0 0 1029.3 1029.3 0.2
25/06:30pm 11.7 11.8 10.3 91 0.7 CALM 0 0 0 0 1029.0 1029.0 0.2
25/06:00pm 12.9 13.2 10.8 87 1.1 CALM 0 0 0 0 1028.4 1028.4 0.2
25/05:30pm 13.4 12.5 10.8 84 1.4 SW 6 7 3 4 1028.4 1028.4 0.2
25/05:00pm 14.3 13.5 11.1 81 1.7 SW 6 7 3 4 1028.4 1028.4 0.2
25/04:30pm 14.8 13.9 11.2 79 1.9 WSW 7 9 4 5 1028.4 1028.4 0.2
25/04:00pm 15.6 14.8 11.0 74 2.4 SW 6 7 3 4 1028.5 1028.5 0.2
25/03:30pm 16.1 16.3 10.6 70 2.9 CALM 0 2 0 1 1028.5 1028.5 0.2
25/03:00pm 16.3 15.1 10.4 68 3.1 WSW 7 9 4 5 1028.6 1028.6 0.2
25/02:30pm 16.4 15.4 10.9 70 2.9 SW 7 9 4 5 1028.6 1028.6 0.2
25/02:00pm 15.8 14.7 10.6 71 2.7 S 7 9 4 5 1028.6 1028.6 0.2
25/01:30pm 15.7 14.1 10.2 70 2.9 SW 9 13 5 7 1029.0 1029.0 0.2
25/01:00pm 15.0 14.4 10.4 74 2.4 SW 4 9 2 5 1029.3 1029.3 0.2
25/12:30pm 14.6 13.8 9.8 73 2.5 W 4 7 2 4 1029.4 1029.4 0.0
25/12:00pm 14.2 13.4 9.6 74 2.3 N 4 9 2 5 1030.1 1030.1 0.0
25/11:30am 13.6 12.4 9.5 76 2.1 SE 6 7 3 4 1030.7 1030.7 0.0
25/11:00am 12.2 11.1 10.1 87 1.1 ESE 6 9 3 5 1031.5 1031.5 0.0
25/10:30am 10.9 9.5 8.8 87 1.0 SE 6 7 3 4 1032.0 1032.0 0.0
25/10:00am 11.0 9.7 9.9 93 0.6 E 7 9 4 5 1032.1 1032.1 0.0
25/09:30am 10.4 10.2 9.2 92 0.6 CALM 0 0 0 0 1032.4 1032.4 0.0
25/09:15am 9.8 9.7 9.3 97 0.2 CALM 0 0 0 0 1032.3 1032.3 0.0
25/09:00am 8.8 7.7 8.5 98 0.1 NW 4 7 2 4 1032.6 1032.6 0.0
25/08:55am 8.5 6.9 8.2 98 0.1 NW 6 7 3 4 1032.6 1032.6 0.0
25/08:30am 7.6 5.8 7.3 98 0.1 N 6 7 3 4 1032.3 1032.3 0.0
25/08:28am 7.4 5.6 7.1 98 0.1 N 6 7 3 4 1032.3 1032.3 0.0
25/08:12am 7.3 5.8 7.0 98 0.1 N 4 6 2 3 1032.3 1032.3 0.0
25/08:00am 7.0 6.2 6.7 98 0.1 CALM 0 0 0 0 1032.3 1032.3 0.0
25/07:30am 6.2 5.3 5.9 98 0.1 CALM 0 0 0 0 1032.2 1032.2 0.0
25/07:06am 5.7 4.7 5.4 98 0.1 CALM 0 0 0 0 1032.1 1032.1 0.0
25/07:03am 5.5 4.4 5.2 98 0.1 CALM 0 0 0 0 1032.1 1032.1 0.0
25/07:00am 5.5 4.4 5.2 98 0.1 CALM 0 0 0 0 1032.1 1032.1 0.0
25/06:59am 5.5 4.4 5.2 98 0.1 CALM 0 0 0 0 1032.2 1032.2 0.0
25/06:33am 5.8 4.8 5.5 98 0.1 CALM 0 0 0 0 1031.9 1031.9 0.0
25/06:30am 5.8 4.8 5.5 98 0.1 CALM 0 0 0 0 1031.9 1031.9 0.0
25/06:29am 5.8 4.8 5.5 98 0.1 CALM 0 0 0 0 1031.9 1031.9 0.0
25/06:21am 5.8 4.8 5.5 98 0.1 CALM 0 0 0 0 1031.9 1031.9 0.0
25/06:08am 5.8 4.8 5.5 98 0.1 CALM 0 0 0 0 1031.8 1031.8 0.0
25/06:07am 5.8 4.8 5.5 98 0.1 CALM 0 0 0 0 1031.8 1031.8 0.0
25/06:00am 5.9 4.9 5.6 98 0.1 CALM 0 0 0 0 1031.7 1031.7 0.0
25/05:39am 6.0 5.0 5.7 98 0.1 CALM 0 0 0 0 1031.7 1031.7 0.0
25/05:34am 6.0 5.0 5.7 98 0.1 CALM 0 0 0 0 1031.7 1031.7 0.0
25/05:30am 6.0 5.0 5.7 98 0.1 CALM 0 0 0 0 1031.7 1031.7 0.0
25/05:22am 6.1 5.1 5.8 98 0.1 CALM 0 0 0 0 1031.5 1031.5 0.0
25/05:00am 6.1 5.1 5.8 98 0.1 CALM 0 0 0 0 1031.6 1031.6 0.0
25/04:30am 6.1 5.1 5.8 98 0.1 CALM 0 0 0 0 1031.6 1031.6 0.0
25/04:00am 6.3 5.4 6.0 98 0.1 CALM 0 0 0 0 1031.6 1031.6 0.0
25/03:30am 6.2 4.1 5.9 98 0.1 N 6 7 3 4 1031.7 1031.7 0.0
25/03:00am 6.0 5.0 5.7 98 0.1 CALM 0 0 0 0 1031.8 1031.8 0.0
25/02:57am 5.9 4.9 5.6 98 0.1 CALM 0 0 0 0 1031.8 1031.8 0.0
25/02:38am 5.7 4.7 5.4 98 0.1 CALM 0 0 0 0 1031.9 1031.9 0.0
25/02:30am 5.4 4.3 5.1 98 0.1 CALM 0 0 0 0 1031.8 1031.8 0.0
25/02:00am 5.9 4.9 5.6 98 0.1 CALM 0 0 0 0 1032.1 1032.1 0.0
25/01:58am 5.9 4.9 5.6 98 0.1 CALM 0 0 0 0 1032.1 1032.1 0.0
25/01:42am 5.8 4.8 5.5 98 0.1 CALM 0 0 0 0 1032.1 1032.1 0.0
25/01:32am 5.9 4.9 5.6 98 0.1 CALM 0 0 0 0 1032.0 1032.0 0.0
25/01:31am 6.1 5.1 5.8 98 0.1 CALM 0 0 0 0 1032.0 1032.0 0.0
25/01:30am 6.2 5.3 5.9 98 0.1 CALM 0 0 0 0 1031.9 1031.9 0.0
25/01:26am 6.4 5.5 6.1 98 0.1 CALM 0 0 0 0 1031.9 1031.9 0.0
25/01:25am 6.4 5.5 6.1 98 0.1 CALM 0 0 0 0 1031.9 1031.9 0.0
25/01:05am 6.8 6.0 6.5 98 0.1 CALM 0 0 0 0 1032.2 1032.2 0.0
25/01:04am 6.6 5.8 6.3 98 0.1 CALM 0 0 0 0 1032.2 1032.2 0.0
25/01:03am 6.9 6.1 6.6 98 0.1 CALM 0 0 0 0 1032.2 1032.2 0.0
25/01:00am 6.7 5.9 6.4 98 0.1 CALM 0 0 0 0 1032.2 1032.2 0.0
25/12:59am 6.9 6.1 6.6 98 0.1 CALM 0 0 0 0 1032.1 1032.1 0.0
25/12:48am 7.2 6.1 6.9 98 0.1 NE 2 7 1 4 1032.0 1032.0 0.0
25/12:47am 7.1 5.6 6.8 98 0.1 NE 4 7 2 4 1032.0 1032.0 0.0
25/12:42am 7.2 5.2 6.9 98 0.1 NE 7 9 4 5 1032.0 1032.0 0.0
25/12:41am 7.2 5.2 6.9 98 0.1 NE 7 9 4 5 1032.0 1032.0 0.0
25/12:38am 7.2 5.2 6.9 98 0.1 NE 7 9 4 5 1032.1 1032.1 0.0
25/12:30am 7.4 5.6 7.1 98 0.1 NNE 6 7 3 4 1032.3 1032.3 0.0
25/12:26am 7.5 5.7 7.2 98 0.1 NNE 6 7 3 4 1032.4 1032.4 0.0
25/12:25am 7.6 5.8 7.3 98 0.1 NNE 6 7 3 4 1032.4 1032.4 0.0
25/12:16am 7.3 5.8 7.0 98 0.1 NE 4 7 2 4 1032.6 1032.6 0.0
25/12:00am 7.1 6.3 6.5 96 0.3 CALM 0 0 0 0 1032.7 1032.7 0.0
 
Date/Time
EST
Tmp

°C
App
Tmp
°C
Dew
Point
°C
Rel
Hum
%
Delta-T

°C
Wind Press
QNH
hPa
Press
MSL
hPa
Rain
since
9 am
mm
Dir
 
Spd
km/h
Gust
km/h
Spd
kts
Gust
kts
24/11:43pm 7.3 5.4 6.9 97 0.2 E 6 7 3 4 1032.6 1032.6 0.0
24/11:30pm 7.3 6.6 7.0 98 0.1 CALM 0 0 0 0 1032.7 1032.7 0.0
24/11:28pm 7.3 6.6 7.0 98 0.1 CALM 0 0 0 0 1032.7 1032.7 0.0
24/11:00pm 7.6 6.9 7.0 96 0.3 CALM 0 0 0 0 1032.7 1032.7 0.0
24/10:30pm 8.1 7.5 7.3 95 0.4 CALM 0 0 0 0 1032.4 1032.4 0.0
24/10:00pm 8.2 7.6 7.4 95 0.4 CALM 0 0 0 0 1032.6 1032.6 0.0
24/09:30pm 8.7 6.9 8.1 96 0.3 NNW 7 9 4 5 1032.7 1032.7 0.0
24/09:00pm 8.3 6.4 7.7 96 0.3 NNW 7 9 4 5 1032.6 1032.6 0.0
24/08:30pm 8.7 8.1 7.3 91 0.7 CALM 0 0 0 0 1032.3 1032.3 0.0
24/08:00pm 9.1 8.6 7.7 91 0.7 CALM 0 0 0 0 1032.1 1032.1 0.0
24/07:30pm 9.5 8.9 7.4 87 1.0 CALM 0 0 0 0 1031.9 1031.9 0.0
24/07:00pm 10.3 9.8 7.7 84 1.2 CALM 0 0 0 0 1031.7 1031.7 0.0
24/06:30pm 10.9 10.3 7.4 79 1.7 CALM 0 0 0 0 1031.6 1031.6 0.0
24/06:00pm 11.5 10.8 7.0 74 2.1 CALM 0 0 0 0 1031.4 1031.4 0.0
24/05:30pm 13.0 11.8 6.6 65 3.1 ESE 2 6 1 3 1031.2 1031.2 0.0
24/05:00pm 15.1 12.7 6.9 58 4.0 E 9 11 5 6 1030.9 1030.9 0.0
24/04:30pm 16.2 13.8 7.2 55 4.5 E 9 13 5 7 1030.5 1030.5 0.0
24/04:00pm 17.6 14.8 7.1 50 5.2 ENE 11 13 6 7 1030.4 1030.4 0.0
24/03:30pm 18.1 15.2 6.6 47 5.7 E 11 15 6 8 1030.3 1030.3 0.0
24/03:00pm 18.3 15.7 6.2 45 5.9 E 9 13 5 7 1030.6 1030.6 0.0
24/02:30pm 18.5 16.0 6.7 46 5.9 ENE 9 13 5 7 1030.4 1030.4 0.0
24/02:00pm 18.7 16.8 7.5 48 5.6 NE 7 15 4 8 1030.4 1030.4 0.0
24/01:30pm 18.6 16.8 7.1 47 5.8 NE 6 9 3 5 1030.4 1030.4 0.0
24/01:00pm 17.5 15.5 6.4 48 5.4 SE 6 9 3 5 1030.6 1030.6 0.0
24/12:30pm 17.3 15.4 6.5 49 5.3 ESE 6 13 3 7 1030.9 1030.9 0.0
24/12:00pm 16.4 14.7 8.4 59 4.0 ESE 7 9 4 5 1031.3 1031.3 0.0
24/11:30am 15.1 13.6 8.3 64 3.4 SE 6 9 3 5 1031.9 1031.9 0.0
24/11:00am 14.0 13.0 9.0 72 2.5 N 4 9 2 5 1032.5 1032.5 0.0
24/10:30am 12.9 11.7 9.4 79 1.8 NE 6 9 3 5 1032.7 1032.7 0.0
24/10:00am 11.4 9.9 8.6 83 1.4 NNE 6 9 3 5 1032.8 1032.8 0.0
24/09:38am 9.9 8.5 8.7 92 0.6 NNE 6 9 3 5 1032.9 1032.9 0.0
24/09:37am 9.7 8.2 8.3 91 0.7 NNE 6 7 3 4 1032.9 1032.9 0.0
24/09:30am 9.3 7.9 8.7 96 0.3 NNE 6 7 3 4 1033.0 1033.0 0.0
24/09:11am 8.0 6.1 7.7 98 0.1 NE 7 9 4 5 1032.8 1032.8 0.0
24/09:00am 6.6 4.4 6.3 98 0.1 NNE 7 9 4 5 1032.8 1032.8 0.2
24/08:41am 6.5 4.3 6.1 97 0.2 NE 7 9 4 5 1032.7 1032.7 0.2
24/08:40am 6.6 4.4 6.2 97 0.2 NE 7 9 4 5 1032.7 1032.7 0.2
24/08:35am 6.4 4.1 5.7 95 0.3 NNE 7 9 4 5 1032.7 1032.7 0.2
24/08:30am 7.1 5.6 6.7 97 0.2 NE 4 9 2 5 1032.6 1032.6 0.2
24/08:00am 6.2 5.3 5.9 98 0.1 CALM 0 0 0 0 1032.6 1032.6 0.2
24/07:32am 4.4 3.1 4.1 98 0.1 CALM 0 0 0 0 1032.3 1032.3 0.2
24/07:30am 4.3 3.0 4.0 98 0.1 CALM 0 0 0 0 1032.3 1032.3 0.2
24/07:15am 3.4 1.9 3.1 98 0.1 CALM 0 0 0 0 1032.2 1032.2 0.2
24/07:00am 3.3 1.8 3.0 98 0.1 CALM 0 0 0 0 1031.9 1031.9 0.2
24/06:30am 3.5 1.3 3.2 98 0.1 NNE 4 6 2 3 1031.7 1031.7 0.2
24/06:10am 3.5 2.0 3.2 98 0.1 CALM 0 0 0 0 1031.7 1031.7 0.2
24/06:05am 3.6 2.2 3.3 98 0.1 CALM 0 0 0 0 1031.6 1031.6 0.2
24/06:00am 3.6 2.2 3.3 98 0.1 CALM 0 0 0 0 1031.5 1031.5 0.2
24/05:59am 3.7 2.3 3.4 98 0.1 CALM 0 0 0 0 1031.5 1031.5 0.2
24/05:41am 3.6 2.2 3.3 98 0.1 CALM 0 0 0 0 1031.3 1031.3 0.2
24/05:40am 3.5 2.0 3.2 98 0.1 CALM 0 0 0 0 1031.3 1031.3 0.2
24/05:30am 3.8 2.4 3.5 98 0.1 CALM 0 0 0 0 1031.2 1031.2 0.2
24/05:14am 4.0 2.6 3.7 98 0.1 CALM 0 0 0 0 1031.0 1031.0 0.2
24/05:12am 4.0 2.6 3.7 98 0.1 CALM 0 0 0 0 1031.0 1031.0 0.2
24/05:00am 4.3 3.0 4.0 98 0.1 CALM 0 0 0 0 1031.0 1031.0 0.2
24/04:45am 4.3 3.0 4.0 98 0.1 CALM 0 0 0 0 1030.9 1030.9 0.2
24/04:30am 4.3 3.0 4.0 98 0.1 CALM 0 0 0 0 1030.8 1030.8 0.2
24/04:25am 4.2 2.9 3.9 98 0.1 CALM 0 0 0 0 1030.8 1030.8 0.2
24/04:10am 4.6 3.3 4.3 98 0.1 CALM 0 0 0 0 1030.6 1030.6 0.2
24/04:00am 4.7 3.5 4.4 98 0.1 CALM 0 0 0 0 1030.6 1030.6 0.2
24/03:30am 4.9 3.7 4.6 98 0.1 CALM 0 0 0 0 1030.4 1030.4 0.2
24/03:00am 5.3 4.2 5.0 98 0.1 CALM 0 0 0 0 1030.3 1030.3 0.2
24/02:30am 5.6 4.5 5.3 98 0.1 CALM 0 0 0 0 1030.2 1030.2 0.2
24/02:00am 5.7 4.7 5.4 98 0.1 CALM 0 0 0 0 1030.2 1030.2 0.2
24/01:58am 5.8 4.8 5.5 98 0.1 CALM 0 0 0 0 1030.2 1030.2 0.2
24/01:55am 5.9 4.9 5.6 98 0.1 CALM 0 0 0 0 1030.2 1030.2 0.2
24/01:30am 5.9 4.9 5.5 97 0.2 CALM 0 0 0 0 1030.2 1030.2 0.2
24/01:00am 6.7 5.9 6.4 98 0.1 CALM 0 0 0 0 1030.1 1030.1 0.2
24/12:42am 7.1 6.4 6.8 98 0.1 CALM 0 0 0 0 1030.0 1030.0 0.2
24/12:41am 7.2 6.5 6.9 98 0.1 CALM 0 0 0 0 1030.0 1030.0 0.2
24/12:40am 7.2 6.5 6.9 98 0.1 CALM 0 0 0 0 1030.0 1030.0 0.2
24/12:30am 7.1 6.4 6.8 98 0.1 CALM 0 0 0 0 1030.0 1030.0 0.2
24/12:29am 7.1 6.4 6.8 98 0.1 CALM 0 0 0 0 1030.0 1030.0 0.2
24/12:28am 7.0 6.2 6.7 98 0.1 CALM 0 0 0 0 1030.0 1030.0 0.2
24/12:23am 7.3 6.6 7.0 98 0.1 CALM 0 0 0 0 1030.1 1030.1 0.2
24/12:22am 7.3 6.6 7.0 98 0.1 CALM 0 0 0 0 1030.1 1030.1 0.2
24/12:20am 7.1 6.4 6.8 98 0.1 CALM 0 0 0 0 1030.1 1030.1 0.2
24/12:19am 6.8 6.0 6.5 98 0.1 CALM 0 0 0 0 1030.1 1030.1 0.2
24/12:18am 6.8 6.0 6.5 98 0.1 CALM 0 0 0 0 1030.1 1030.1 0.2
24/12:00am 7.4 6.7 7.1 98 0.1 CALM 0 0 0 0 1030.1 1030.1 0.2
 
Date/Time
EST
Tmp

°C
App
Tmp
°C
Dew
Point
°C
Rel
Hum
%
Delta-T

°C
Wind Press
QNH
hPa
Press
MSL
hPa
Rain
since
9 am
mm
Dir
 
Spd
km/h
Gust
km/h
Spd
kts
Gust
kts
23/11:44pm 7.2 6.5 6.9 98 0.1 CALM 0 0 0 0 1030.2 1030.2 0.2
23/11:31pm 7.2 6.5 6.8 97 0.2 CALM 0 0 0 0 1030.2 1030.2 0.2
23/11:30pm 7.3 6.6 6.9 97 0.2 CALM 0 0 0 0 1030.2 1030.2 0.2
23/11:00pm 7.6 6.9 6.9 95 0.3 CALM 0 0 0 0 1030.3 1030.3 0.2
23/10:30pm 7.8 7.0 6.7 93 0.5 CALM 0 0 0 0 1030.2 1030.2 0.2
23/10:00pm 8.4 7.8 7.5 94 0.4 CALM 0 0 0 0 1030.3 1030.3 0.2
23/09:30pm 8.5 7.6 7.6 94 0.4 W 2 6 1 3 1030.2 1030.2 0.2
23/09:00pm 9.0 7.4 7.8 92 0.6 W 6 9 3 5 1030.1 1030.1 0.2
23/08:30pm 8.9 7.2 7.4 90 0.7 WSW 6 7 3 4 1030.1 1030.1 0.2
23/08:00pm 9.4 7.6 7.2 86 1.0 WSW 6 9 3 5 1029.9 1029.9 0.2
23/07:30pm 10.9 9.1 8.1 83 1.4 WSW 7 11 4 6 1029.8 1029.8 0.2
23/07:00pm 11.0 9.4 8.2 83 1.4 WSW 6 9 3 5 1029.5 1029.5 0.2
23/06:30pm 11.9 10.4 8.4 79 1.7 W 6 9 3 5 1029.2 1029.2 0.2
23/06:00pm 13.7 11.6 8.1 69 2.8 ESE 9 11 5 6 1028.9 1028.9 0.2
23/05:30pm 13.5 10.9 7.7 68 2.9 ESE 11 13 6 7 1028.6 1028.6 0.2
23/05:00pm 15.1 12.9 7.9 62 3.6 SE 9 13 5 7 1028.4 1028.4 0.2
23/04:30pm 17.2 15.4 7.8 54 4.8 SSE 7 9 4 5 1028.3 1028.3 0.2
23/04:00pm 18.0 15.8 7.7 51 5.2 SSW 9 11 5 6 1028.2 1028.2 0.2
23/03:30pm 17.1 15.2 7.5 53 4.8 SSW 7 9 4 5 1028.0 1028.0 0.2
23/03:00pm 17.3 14.5 6.8 50 5.2 SSW 11 17 6 9 1027.9 1027.9 0.2
23/02:30pm 18.5 16.3 7.9 50 5.4 S 9 17 5 9 1027.9 1027.9 0.2
23/02:00pm 18.5 15.5 7.6 49 5.5 SSW 13 17 7 9 1028.0 1028.0 0.2
23/01:30pm 17.9 14.9 7.6 51 5.2 SW 13 20 7 11 1028.1 1028.1 0.2
23/01:00pm 18.3 15.1 8.6 53 5.0 SSW 15 20 8 11 1028.2 1028.2 0.0
23/12:30pm 17.9 14.1 7.6 51 5.2 S 17 24 9 13 1028.4 1028.4 0.0
23/12:00pm 17.2 14.2 7.5 53 4.8 SSW 13 17 7 9 1028.7 1028.7 0.0
23/11:30am 17.3 13.2 6.2 48 5.4 SW 17 22 9 12 1029.0 1029.0 0.0
23/11:00am 17.2 12.8 7.3 52 4.9 SSW 20 30 11 16 1029.3 1029.3 0.0
23/10:30am 17.0 12.8 7.4 53 4.8 SSW 19 26 10 14 1029.7 1029.7 0.0
23/10:00am 16.0 12.1 7.2 56 4.3 SSW 17 28 9 15 1029.6 1029.6 0.0
23/09:30am 14.9 11.9 7.9 63 3.5 SSW 13 17 7 9 1029.7 1029.7 0.0
23/09:00am 13.9 12.6 7.7 66 3.0 SE 4 9 2 5 1029.5 1029.5 11.8
23/08:30am 12.3 11.3 7.2 71 2.5 NNW 2 7 1 4 1029.2 1029.2 11.8
23/08:00am 11.0 9.2 7.3 78 1.8 NE 6 9 3 5 1029.1 1029.1 11.8
23/07:30am 9.6 8.9 7.0 84 1.2 CALM 0 7 0 4 1028.5 1028.5 11.8
23/07:00am 9.6 7.9 6.1 79 1.6 W 4 6 2 3 1028.2 1028.2 11.8
23/06:30am 10.1 7.9 6.4 78 1.7 SSW 7 9 4 5 1027.9 1027.9 11.8
23/06:00am 10.6 8.1 6.7 77 1.8 SW 9 11 5 6 1027.6 1027.6 11.8
23/05:30am 10.9 8.5 7.0 77 1.9 SW 9 15 5 8 1027.2 1027.2 11.8
23/05:00am 11.7 9.4 7.6 76 2.0 SW 9 13 5 7 1027.0 1027.0 11.8
23/04:30am 12.1 9.5 7.6 74 2.2 SSW 11 17 6 9 1026.8 1026.8 11.8
23/04:00am 12.6 9.3 7.9 73 2.3 SSW 15 20 8 11 1026.6 1026.6 11.8
23/03:30am 12.9 10.1 8.6 75 2.1 S 13 19 7 10 1026.6 1026.6 11.8
23/03:00am 12.4 10.6 9.4 82 1.5 SW 9 11 5 6 1026.9 1026.9 11.8
23/02:30am 12.1 9.6 9.7 85 1.2 SW 13 22 7 12 1027.0 1027.0 11.8
23/02:00am 12.2 9.3 9.6 84 1.3 SSW 15 20 8 11 1027.2 1027.2 11.8
23/01:30am 11.9 9.5 10.1 89 0.9 SSW 13 19 7 10 1027.2 1027.2 11.8
23/01:00am 12.3 9.9 10.0 86 1.2 SSW 13 20 7 11 1027.3 1027.3 11.8
23/12:56am 12.0 9.6 10.2 89 0.9 SSW 13 17 7 9 1027.2 1027.2 11.8
23/12:44am 11.9 8.3 9.8 87 1.1 SSW 19 30 10 16 1027.2 1027.2 11.8
23/12:30am 12.9 10.3 9.2 78 1.9 SSW 13 19 7 10 1027.0 1027.0 11.6
23/12:00am 12.8 10.0 8.7 76 2.0 SSW 13 19 7 10 1026.8 1026.8 11.6
 
Date/Time
EST
Tmp

°C
App
Tmp
°C
Dew
Point
°C
Rel
Hum
%
Delta-T

°C
Wind Press
QNH
hPa
Press
MSL
hPa
Rain
since
9 am
mm
Dir
 
Spd
km/h
Gust
km/h
Spd
kts
Gust
kts
22/11:30pm 13.1 10.4 8.8 75 2.2 SSW 13 19 7 10 1026.8 1026.8 11.6
22/11:00pm 13.1 9.9 8.6 74 2.2 SW 15 20 8 11 1026.7 1026.7 11.6
22/10:30pm 13.3 11.3 8.8 74 2.3 SSW 9 13 5 7 1026.7 1026.7 11.6
22/10:00pm 13.3 11.4 9.0 75 2.2 SSW 9 13 5 7 1026.4 1026.4 11.6

Latest Capital City Observations: Canberra | Sydney | Melbourne | Brisbane | Adelaide | Perth | Hobart | Darwin

Other Formats:

Comma delimited format used in spreadsheet applications
http://www.bom.gov.au/fwo/IDN60901/IDN60901.95753.axf

JavaScript Object Notation format (JSON) in row-major order
http://www.bom.gov.au/fwo/IDN60901/IDN60901.95753.json